createdAt,value
2019-03-23T00:00:38.496Z,19.00
2019-03-23T00:03:11.880Z,19.92
2019-03-23T00:05:47.431Z,20.50
2019-03-23T00:08:20.527Z,19.70
2019-03-23T00:10:53.118Z,19.25
2019-03-23T00:13:26.143Z,18.48
2019-03-23T00:15:58.334Z,18.10
2019-03-23T00:18:30.827Z,18.50
2019-03-23T00:21:03.747Z,18.00
2019-03-23T00:23:36.532Z,17.30
2019-03-23T00:26:09.186Z,17.05
2019-03-23T00:28:40.899Z,18.15
2019-03-23T00:31:13.557Z,19.40
2019-03-23T00:33:46.130Z,18.00
2019-03-23T00:36:18.890Z,19.15
2019-03-23T00:38:51.620Z,20.00
2019-03-23T00:41:24.549Z,19.77
2019-03-23T00:43:57.093Z,19.42
2019-03-23T00:46:28.908Z,19.32
2019-03-23T00:49:01.499Z,19.10
2019-03-23T00:51:33.619Z,20.37
2019-03-23T00:54:05.770Z,20.25
2019-03-23T00:56:37.954Z,20.12
2019-03-23T00:59:10.137Z,19.30
2019-03-23T01:01:42.447Z,18.87
2019-03-23T01:04:14.632Z,19.65
2019-03-23T01:06:52.067Z,19.90
2019-03-23T01:09:22.006Z,20.20
2019-03-23T01:11:54.947Z,19.92
2019-03-23T01:14:27.561Z,20.15
2019-03-23T01:17:00.135Z,18.20
2019-03-23T01:19:32.707Z,18.25
2019-03-23T01:22:05.298Z,18.55
2019-03-23T01:24:38.443Z,19.50
2019-03-23T01:27:11.346Z,19.75
2019-03-23T01:29:43.258Z,19.12
2019-03-23T01:32:15.242Z,19.52
2019-03-23T01:34:47.865Z,19.12
2019-03-23T01:37:19.866Z,17.77
2019-03-23T01:39:52.560Z,19.45
2019-03-23T01:42:25.230Z,19.42
2019-03-23T01:44:57.838Z,19.42
2019-03-23T01:47:30.463Z,19.90
2019-03-23T01:50:03.450Z,19.05
2019-03-23T01:52:35.810Z,20.43
2019-03-23T01:55:08.331Z,18.15
2019-03-23T01:57:40.996Z,20.10
2019-03-23T02:00:14.526Z,18.62
2019-03-23T02:02:47.652Z,19.25
2019-03-23T02:05:20.722Z,19.30
2019-03-23T02:07:53.608Z,19.70
2019-03-23T02:10:25.888Z,20.12
2019-03-23T02:12:58.491Z,21.00
2019-03-23T02:15:31.038Z,19.82
2019-03-23T02:18:04.015Z,20.30
2019-03-23T02:20:36.290Z,20.02
2019-03-23T02:23:08.144Z,19.92
2019-03-23T02:25:40.303Z,19.10
2019-03-23T02:28:12.776Z,19.60
2019-03-23T02:30:45.736Z,19.40
2019-03-23T02:33:17.653Z,19.40
2019-03-23T02:35:50.222Z,17.98
2019-03-23T02:38:22.431Z,19.00
2019-03-23T02:40:54.386Z,18.55
2019-03-23T02:43:25.879Z,18.45
2019-03-23T02:45:58.800Z,18.40
2019-03-23T02:48:31.346Z,18.50
2019-03-23T02:51:03.728Z,19.05
2019-03-23T02:53:36.320Z,19.57
2019-03-23T02:56:08.985Z,19.50
2019-03-23T02:58:41.670Z,18.37
2019-03-23T03:01:14.276Z,20.43
2019-03-23T03:03:48.663Z,19.15
2019-03-23T03:06:21.258Z,18.37
2019-03-23T03:08:53.597Z,19.32
2019-03-23T03:11:26.639Z,19.15
2019-03-23T03:13:59.297Z,19.57
2019-03-23T03:16:31.219Z,19.82
2019-03-23T03:19:03.509Z,19.95
2019-03-23T03:21:36.506Z,19.50
2019-03-23T03:24:09.118Z,22.22
2019-03-23T03:26:42.062Z,19.45
2019-03-23T03:29:14.973Z,21.37
2019-03-23T03:31:47.644Z,19.70
2019-03-23T03:34:19.237Z,20.80
2019-03-23T03:36:51.418Z,20.80
2019-03-23T03:39:23.922Z,22.40
2019-03-23T03:41:56.047Z,21.97
2019-03-23T03:44:28.989Z,22.17
2019-03-23T03:47:01.954Z,21.15
2019-03-23T03:49:34.120Z,21.15
2019-03-23T03:52:06.431Z,21.82
2019-03-23T03:54:39.004Z,21.85
2019-03-23T03:57:11.582Z,21.30
2019-03-23T03:59:43.922Z,21.60
2019-03-23T04:02:16.844Z,21.62
2019-03-23T04:04:49.534Z,21.55
2019-03-23T04:07:22.082Z,23.05
2019-03-23T04:09:54.017Z,22.45
2019-03-23T04:12:26.656Z,22.98
2019-03-23T04:14:58.547Z,22.10
2019-03-23T04:17:31.403Z,23.20
2019-03-23T04:20:04.051Z,24.05
2019-03-23T04:22:36.641Z,24.70
2019-03-23T04:25:09.257Z,25.23
2019-03-23T04:27:41.770Z,24.57
2019-03-23T04:30:15.228Z,26.33
2019-03-23T04:32:47.411Z,24.12
2019-03-23T04:35:20.402Z,24.50
2019-03-23T04:37:52.876Z,25.40
2019-03-23T04:40:25.463Z,25.20
2019-03-23T04:42:58.105Z,24.77
2019-03-23T04:45:29.930Z,25.68
2019-03-23T04:48:01.669Z,25.97
2019-03-23T04:50:34.171Z,25.80
2019-03-23T04:53:07.310Z,24.25
2019-03-23T04:55:39.926Z,24.98
2019-03-23T04:58:12.184Z,25.88
2019-03-23T05:00:44.237Z,24.65
2019-03-23T05:03:16.176Z,25.50
2019-03-23T05:05:48.711Z,25.60
2019-03-23T05:08:21.281Z,24.07
2019-03-23T05:10:53.467Z,24.92
2019-03-23T05:13:25.384Z,24.77
2019-03-23T05:15:58.383Z,25.65
2019-03-23T05:18:30.673Z,24.10
2019-03-23T05:21:03.255Z,23.92
2019-03-23T05:23:35.976Z,23.87
2019-03-23T05:26:08.212Z,24.23
2019-03-23T05:28:40.122Z,24.55
2019-03-23T05:31:12.835Z,23.38
2019-03-23T05:33:45.467Z,23.52
2019-03-23T05:36:18.464Z,23.42
2019-03-23T05:38:51.034Z,23.55
2019-03-23T05:41:23.421Z,23.05
2019-03-23T05:43:55.421Z,23.15
2019-03-23T05:46:28.163Z,24.80
2019-03-23T05:49:00.795Z,22.98
2019-03-23T05:51:33.465Z,24.47
2019-03-23T05:54:06.412Z,22.40
2019-03-23T05:56:38.997Z,23.15
2019-03-23T05:59:11.171Z,23.45
2019-03-23T06:01:43.121Z,24.20
2019-03-23T06:04:15.655Z,23.52
2019-03-23T06:06:48.301Z,23.67
2019-03-23T06:09:20.520Z,23.38
2019-03-23T06:11:53.061Z,22.02
2019-03-23T06:14:24.540Z,23.00
2019-03-23T06:16:56.131Z,23.47
2019-03-23T06:19:29.063Z,24.10
2019-03-23T06:22:50.648Z,24.77
2019-03-23T06:25:23.812Z,24.18
2019-03-23T06:27:56.362Z,23.90
2019-03-23T06:30:28.613Z,23.90
2019-03-23T06:33:00.874Z,23.50
2019-03-23T06:35:33.467Z,22.52
2019-03-23T06:38:07.283Z,23.02
2019-03-23T06:40:40.657Z,22.73
2019-03-23T06:43:13.524Z,23.20
2019-03-23T06:45:45.731Z,22.48
2019-03-23T06:48:23.937Z,23.47
2019-03-23T06:51:25.907Z,23.07
2019-03-23T06:55:52.495Z,21.68
2019-03-23T06:57:40.438Z,21.60
2019-03-23T07:00:13.677Z,23.32
2019-03-23T07:02:45.673Z,21.87
2019-03-23T07:05:17.785Z,21.40
2019-03-23T07:07:50.440Z,26.70
2019-03-23T07:10:23.383Z,22.27
2019-03-23T07:12:55.701Z,30.92
2019-03-23T07:15:28.638Z,24.75
2019-03-23T07:18:00.957Z,22.73
2019-03-23T07:20:33.465Z,20.57
2019-03-23T07:23:05.631Z,21.27
2019-03-23T07:25:38.363Z,26.05
2019-03-23T07:28:11.266Z,23.87
2019-03-23T07:30:44.209Z,20.55
2019-03-23T07:33:16.583Z,23.30
2019-03-23T07:35:49.236Z,22.15
2019-03-23T07:38:21.934Z,22.15
2019-03-23T07:40:54.043Z,22.73
2019-03-23T07:43:27.107Z,21.68
2019-03-23T07:45:59.550Z,23.83
2019-03-23T07:48:38.277Z,22.93
2019-03-23T07:51:10.864Z,21.77
2019-03-23T07:53:43.605Z,21.87
2019-03-23T07:56:16.281Z,22.42
2019-03-23T07:58:48.155Z,22.70
2019-03-23T08:01:21.136Z,21.87
2019-03-23T08:04:13.755Z,22.75
2019-03-23T08:06:46.146Z,23.38
2019-03-23T08:09:20.749Z,22.00
2019-03-23T08:11:52.879Z,22.00
2019-03-23T08:14:24.797Z,22.27
2019-03-23T08:16:57.905Z,21.60
2019-03-23T08:19:30.798Z,21.10
2019-03-23T08:22:03.371Z,21.80
2019-03-23T08:24:36.547Z,21.80
2019-03-23T08:27:08.868Z,21.07
2019-03-23T08:29:41.775Z,21.03
2019-03-23T08:32:13.690Z,22.13
2019-03-23T08:34:45.541Z,21.87
2019-03-23T08:37:19.356Z,21.37
2019-03-23T08:39:51.703Z,20.80
2019-03-23T08:42:23.977Z,22.00
2019-03-23T08:44:55.904Z,22.67
2019-03-23T08:47:29.816Z,23.50
2019-03-23T08:50:01.698Z,22.33
2019-03-23T08:52:34.340Z,23.20
2019-03-23T08:55:06.861Z,23.67
2019-03-23T08:57:41.339Z,23.00
2019-03-23T09:00:13.919Z,23.30
2019-03-23T09:02:46.218Z,21.93
2019-03-23T09:05:18.578Z,22.67
2019-03-23T09:07:52.598Z,22.50
2019-03-23T09:10:24.985Z,21.70
2019-03-23T09:12:57.680Z,21.33
2019-03-23T09:15:35.361Z,22.10
2019-03-23T09:18:17.215Z,20.10
2019-03-23T09:20:49.441Z,21.60
2019-03-23T09:23:22.389Z,21.97
2019-03-23T09:25:54.584Z,22.33
2019-03-23T09:28:27.178Z,22.03
2019-03-23T09:30:59.465Z,22.63
2019-03-23T09:33:31.389Z,24.40
2019-03-23T09:36:03.789Z,23.70
2019-03-23T09:38:36.475Z,24.40
2019-03-23T09:41:09.085Z,23.93
2019-03-23T09:43:41.420Z,23.93
2019-03-23T09:46:13.846Z,24.03
2019-03-23T09:48:46.044Z,23.83
2019-03-23T09:51:18.483Z,24.20
2019-03-23T09:53:50.757Z,25.13
2019-03-23T09:56:22.665Z,25.50
2019-03-23T09:58:55.240Z,23.30
2019-03-23T10:01:27.356Z,24.40
2019-03-23T10:03:59.754Z,24.10
2019-03-23T10:06:33.006Z,25.97
2019-03-23T10:09:08.085Z,24.57
2019-03-23T10:11:41.575Z,25.10
2019-03-23T10:14:14.653Z,25.50
2019-03-23T10:16:47.060Z,24.70
2019-03-23T10:19:19.659Z,25.70
2019-03-23T10:21:51.997Z,25.70
2019-03-23T10:24:24.452Z,27.00
2019-03-23T10:26:58.083Z,26.73
2019-03-23T10:29:30.757Z,26.33
2019-03-23T10:32:02.711Z,26.93
2019-03-23T10:34:35.401Z,30.83
2019-03-23T10:37:07.997Z,29.97
2019-03-23T10:39:40.502Z,25.53
2019-03-23T10:42:13.317Z,27.37
2019-03-23T10:44:45.948Z,26.80
2019-03-23T10:47:19.251Z,26.17
2019-03-23T10:49:52.070Z,29.00
2019-03-23T10:52:25.050Z,29.70
2019-03-23T10:54:57.963Z,28.33
2019-03-23T10:57:30.870Z,27.93
2019-03-23T11:00:03.600Z,28.07
2019-03-23T11:02:35.051Z,26.83
2019-03-23T11:05:08.121Z,27.10
2019-03-23T11:07:40.841Z,29.00
2019-03-23T11:10:13.567Z,28.10
2019-03-23T11:12:45.724Z,28.00
2019-03-23T11:15:17.999Z,28.00
2019-03-23T11:17:50.007Z,28.63
2019-03-23T11:20:23.223Z,28.00
2019-03-23T11:22:55.142Z,27.60
2019-03-23T11:25:27.462Z,26.77
2019-03-23T11:27:59.603Z,27.50
2019-03-23T11:30:32.170Z,27.60
2019-03-23T11:33:05.236Z,29.00
2019-03-23T11:35:37.583Z,27.90
2019-03-23T11:38:09.983Z,26.80
2019-03-23T11:40:52.179Z,27.23
2019-03-23T11:43:17.168Z,27.97
2019-03-23T11:45:49.866Z,27.00
2019-03-23T11:48:22.168Z,26.93
2019-03-23T11:50:55.031Z,27.33
2019-03-23T11:53:27.754Z,26.87
2019-03-23T11:55:59.912Z,27.77
2019-03-23T11:58:31.774Z,29.10
2019-03-23T12:01:04.756Z,27.50
2019-03-23T12:03:36.965Z,25.57
2019-03-23T12:06:09.585Z,26.17
2019-03-23T12:08:42.309Z,28.27
2019-03-23T12:11:15.441Z,27.67
2019-03-23T12:13:48.695Z,26.20
2019-03-23T12:16:20.617Z,26.67
2019-03-23T12:18:52.970Z,30.43
2019-03-23T12:21:24.916Z,27.00
2019-03-23T12:23:57.870Z,28.73
2019-03-23T12:26:30.210Z,28.93
2019-03-23T12:29:03.183Z,29.07
2019-03-23T12:31:35.739Z,27.90
2019-03-23T12:34:08.086Z,28.10
2019-03-23T12:36:40.934Z,28.60
2019-03-23T12:39:12.775Z,28.37
2019-03-23T12:41:45.387Z,27.20
2019-03-23T12:44:17.348Z,28.73
2019-03-23T12:46:49.656Z,26.10
2019-03-23T12:49:22.218Z,26.53
2019-03-23T12:51:54.798Z,27.50
2019-03-23T12:54:26.931Z,27.20
2019-03-23T12:56:59.860Z,29.80
2019-03-23T12:59:32.170Z,29.30
2019-03-23T13:02:05.196Z,26.93
2019-03-23T13:04:37.775Z,29.30
2019-03-23T13:07:10.221Z,28.27
2019-03-23T13:09:43.038Z,28.00
2019-03-23T13:12:15.646Z,28.53
2019-03-23T13:14:47.655Z,29.03
2019-03-23T13:17:20.696Z,28.87
2019-03-23T13:19:53.248Z,28.43
2019-03-23T13:22:25.966Z,28.53
2019-03-23T13:24:58.629Z,27.53
2019-03-23T13:27:31.044Z,28.73
2019-03-23T13:30:03.691Z,27.63
2019-03-23T13:32:36.320Z,27.00
2019-03-23T13:35:09.687Z,27.03
2019-03-23T13:37:42.653Z,26.50
2019-03-23T13:40:14.852Z,29.87
2019-03-23T13:42:47.191Z,28.63
2019-03-23T13:45:20.867Z,30.80
2019-03-23T13:47:54.896Z,26.67
2019-03-23T13:50:31.773Z,30.40
2019-03-23T13:53:04.763Z,29.57
2019-03-23T13:55:37.459Z,28.60
2019-03-23T13:58:13.925Z,27.67
2019-03-23T14:00:46.290Z,29.50
2019-03-23T14:03:18.674Z,28.80
2019-03-23T14:05:51.648Z,29.57
2019-03-23T14:08:24.285Z,27.77
2019-03-23T14:10:57.215Z,28.93
2019-03-23T14:13:29.280Z,31.23
2019-03-23T14:16:02.111Z,29.03
2019-03-23T14:18:35.785Z,28.03
2019-03-23T14:21:08.234Z,28.13
2019-03-23T14:23:40.259Z,28.17
2019-03-23T14:26:12.458Z,27.70
2019-03-23T14:28:44.817Z,27.63
2019-03-23T14:31:19.986Z,26.30
2019-03-23T14:33:55.124Z,27.07
2019-03-23T14:36:32.339Z,26.77
2019-03-23T14:39:05.983Z,27.23
2019-03-23T14:41:41.098Z,24.90
2019-03-23T14:44:14.267Z,26.87
2019-03-23T14:46:46.585Z,28.63
2019-03-23T14:49:19.244Z,27.07
2019-03-23T14:51:51.841Z,28.23
2019-03-23T14:54:24.126Z,28.70
2019-03-23T14:56:56.791Z,26.87
2019-03-23T14:59:29.442Z,26.80
2019-03-23T15:02:02.413Z,28.23
2019-03-23T15:04:34.735Z,28.17
2019-03-23T15:07:07.786Z,26.73
2019-03-23T15:09:40.545Z,26.90
2019-03-23T15:12:15.222Z,26.77
2019-03-23T15:14:46.955Z,27.57
2019-03-23T15:17:19.134Z,27.57
2019-03-23T15:19:52.175Z,26.57
2019-03-23T15:22:24.834Z,28.47
2019-03-23T15:24:57.114Z,26.50
2019-03-23T15:27:29.346Z,24.27
2019-03-23T15:30:02.011Z,27.03
2019-03-23T15:32:34.481Z,27.87
2019-03-23T15:35:07.480Z,26.10
2019-03-23T15:37:39.299Z,29.17
2019-03-23T15:40:12.262Z,27.83
2019-03-23T15:42:44.289Z,27.53
2019-03-23T15:45:16.675Z,28.30
2019-03-23T15:47:49.263Z,29.20
2019-03-23T15:50:21.938Z,28.73
2019-03-23T15:52:54.886Z,29.70
2019-03-23T15:55:27.389Z,30.27
2019-03-23T15:57:59.634Z,30.00
2019-03-23T16:00:31.964Z,32.67
2019-03-23T16:03:04.620Z,32.00
2019-03-23T16:05:37.507Z,30.77
2019-03-23T16:08:10.278Z,32.47
2019-03-23T16:10:42.253Z,32.43
2019-03-23T16:13:15.273Z,27.40
2019-03-23T16:15:46.973Z,35.10
2019-03-23T16:18:19.331Z,37.50
2019-03-23T16:20:52.065Z,39.07
2019-03-23T16:23:24.620Z,37.60
2019-03-23T16:25:56.920Z,35.00
2019-03-23T16:28:29.325Z,48.17
2019-03-23T16:31:01.989Z,37.17
2019-03-23T16:33:34.289Z,35.27
2019-03-23T16:36:07.989Z,36.33
2019-03-23T16:38:40.705Z,34.27
2019-03-23T16:41:13.795Z,36.03
2019-03-23T16:43:45.054Z,34.27
2019-03-23T16:46:18.024Z,35.37
2019-03-23T16:48:50.469Z,36.93
2019-03-23T16:51:22.392Z,34.87
2019-03-23T16:53:55.009Z,37.47
2019-03-23T16:56:27.518Z,37.37
2019-03-23T16:59:00.345Z,36.60
2019-03-23T17:01:32.159Z,36.40
2019-03-23T17:04:06.520Z,38.00
2019-03-23T17:06:46.333Z,35.37
2019-03-23T17:09:13.503Z,34.90
2019-03-23T17:11:46.456Z,35.80
2019-03-23T17:14:19.192Z,38.37
2019-03-23T17:16:51.796Z,35.93
2019-03-23T17:19:24.704Z,34.77
2019-03-23T17:21:57.035Z,39.10
2019-03-23T17:24:28.876Z,34.87
2019-03-23T17:27:01.603Z,35.90
2019-03-23T17:29:34.502Z,37.00
2019-03-23T17:32:07.159Z,39.07
2019-03-23T17:34:39.755Z,40.77
2019-03-23T17:37:12.436Z,38.93
2019-03-23T17:39:44.744Z,40.83
2019-03-23T17:42:17.426Z,41.70
2019-03-23T17:44:49.336Z,43.93
2019-03-23T17:47:21.765Z,43.27
2019-03-23T17:49:54.439Z,45.07
2019-03-23T17:52:26.693Z,45.23
2019-03-23T17:54:58.787Z,45.73
2019-03-23T17:57:31.837Z,45.63
2019-03-23T18:00:05.011Z,47.67
2019-03-23T18:02:37.514Z,46.40
2019-03-23T18:05:12.056Z,45.40
2019-03-23T18:07:44.908Z,47.10
2019-03-23T18:10:16.827Z,46.43
2019-03-23T18:12:49.370Z,47.87
2019-03-23T18:15:21.615Z,48.10
2019-03-23T18:17:54.424Z,47.03
2019-03-23T18:20:26.794Z,48.93
2019-03-23T18:22:59.176Z,51.93
2019-03-23T18:25:31.890Z,48.90
2019-03-23T18:28:04.307Z,49.03
2019-03-23T18:30:44.543Z,44.90
2019-03-23T18:33:17.737Z,51.03
2019-03-23T18:35:49.390Z,50.17
2019-03-23T18:38:22.121Z,54.03
2019-03-23T18:40:54.973Z,51.73
2019-03-23T18:43:28.058Z,52.70
2019-03-23T18:46:00.502Z,51.60
2019-03-23T18:48:32.881Z,51.80
2019-03-23T18:51:05.647Z,51.90
2019-03-23T18:53:38.605Z,53.60
2019-03-23T18:56:11.294Z,51.80
2019-03-23T18:58:44.377Z,52.67
2019-03-23T19:01:16.921Z,51.67
2019-03-23T19:03:49.762Z,55.03
2019-03-23T19:06:22.592Z,52.27
2019-03-23T19:08:55.462Z,53.40
2019-03-23T19:11:28.733Z,52.10
2019-03-23T19:14:01.398Z,54.43
2019-03-23T19:16:34.310Z,55.67
2019-03-23T19:19:06.899Z,52.00
2019-03-23T19:21:39.006Z,53.60
2019-03-23T19:24:11.916Z,52.83
2019-03-23T19:26:44.915Z,52.30
2019-03-23T19:29:17.866Z,56.10
2019-03-23T19:31:50.791Z,56.23
2019-03-23T19:34:22.697Z,55.63
2019-03-23T19:36:55.520Z,56.13
2019-03-23T19:39:28.747Z,56.80
2019-03-23T19:42:01.427Z,57.67
2019-03-23T19:44:33.591Z,56.53
2019-03-23T19:47:07.067Z,56.07
2019-03-23T19:49:39.595Z,56.00
2019-03-23T19:52:11.847Z,58.83
2019-03-23T19:54:44.687Z,55.00
2019-03-23T19:57:17.085Z,55.50
2019-03-23T19:59:49.379Z,58.47
2019-03-23T20:02:21.711Z,58.43
2019-03-23T20:04:55.969Z,59.00
2019-03-23T20:07:32.994Z,58.40
2019-03-23T20:10:03.805Z,58.20
2019-03-23T20:12:37.574Z,57.60
2019-03-23T20:15:11.226Z,58.47
2019-03-23T20:17:44.948Z,58.33
2019-03-23T20:20:20.061Z,58.40
2019-03-23T20:22:53.835Z,58.03
2019-03-23T20:25:27.933Z,57.87
2019-03-23T20:28:00.267Z,59.57
2019-03-23T20:30:34.041Z,59.27
2019-03-23T20:33:06.666Z,58.20
2019-03-23T20:35:39.262Z,60.00
2019-03-23T20:38:12.571Z,61.10
2019-03-23T20:40:45.892Z,60.17
2019-03-23T20:43:18.866Z,59.07
2019-03-23T20:45:52.251Z,59.77
2019-03-23T20:48:28.097Z,61.80
2019-03-23T20:51:00.231Z,60.48
2019-03-23T20:53:32.117Z,64.67
2019-03-23T20:56:04.718Z,64.97
2019-03-23T20:58:37.149Z,62.57
2019-03-23T21:01:09.946Z,60.53
2019-03-23T21:03:42.203Z,63.20
2019-03-23T21:06:14.263Z,60.77
2019-03-23T21:08:46.417Z,60.30
2019-03-23T21:11:19.517Z,60.93
2019-03-23T21:13:52.151Z,60.83
2019-03-23T21:16:24.123Z,63.97
2019-03-23T21:18:57.125Z,66.70
2019-03-23T21:21:29.727Z,66.53
2019-03-23T21:24:02.703Z,64.23
2019-03-23T21:26:35.639Z,66.90
2019-03-23T21:29:07.641Z,63.07
2019-03-23T21:31:40.274Z,64.00
2019-03-23T21:34:12.542Z,63.07
2019-03-23T21:36:44.695Z,62.67
2019-03-23T21:39:17.045Z,62.30
2019-03-23T21:41:49.680Z,62.90
2019-03-23T21:44:30.609Z,62.43
2019-03-23T21:46:56.219Z,61.17
2019-03-23T21:49:28.834Z,63.70
2019-03-23T21:52:00.656Z,63.10
2019-03-23T21:54:32.818Z,60.10
2019-03-23T21:57:05.424Z,64.80
2019-03-23T21:59:38.099Z,58.90
2019-03-23T22:02:11.111Z,61.07
2019-03-23T22:04:43.502Z,60.80
2019-03-23T22:07:16.483Z,60.57
2019-03-23T22:09:49.430Z,60.73
2019-03-23T22:12:21.590Z,61.27
2019-03-23T22:14:54.226Z,59.13
2019-03-23T22:17:27.461Z,60.63
2019-03-23T22:19:59.628Z,61.37
2019-03-23T22:22:32.577Z,59.90
2019-03-23T22:25:04.554Z,62.90
2019-03-23T22:27:36.634Z,60.73
2019-03-23T22:30:12.298Z,62.30
2019-03-23T22:32:44.977Z,60.65
2019-03-23T22:35:16.693Z,63.20
2019-03-23T22:37:49.284Z,62.20
2019-03-23T22:40:21.915Z,59.97
2019-03-23T22:42:53.862Z,61.68
2019-03-23T22:45:25.828Z,59.20
2019-03-23T22:47:58.499Z,60.77
2019-03-23T22:50:30.910Z,59.57
2019-03-23T22:53:03.595Z,56.80
2019-03-23T22:55:36.328Z,59.00
2019-03-23T22:58:09.007Z,57.23
2019-03-23T23:00:45.833Z,60.23
2019-03-23T23:03:18.485Z,58.63
2019-03-23T23:05:51.264Z,59.35
2019-03-23T23:08:23.767Z,59.20
2019-03-23T23:10:56.136Z,60.40
2019-03-23T23:13:28.948Z,57.00
2019-03-23T23:16:01.411Z,58.02
2019-03-23T23:18:34.056Z,56.88
2019-03-23T23:21:06.613Z,59.42
2019-03-23T23:23:39.225Z,58.70
2019-03-23T23:26:11.351Z,58.78
2019-03-23T23:28:43.946Z,54.63
2019-03-23T23:31:16.644Z,60.83
2019-03-23T23:33:49.196Z,57.48
2019-03-23T23:36:21.609Z,58.25
2019-03-23T23:38:54.692Z,54.98
2019-03-23T23:41:27.128Z,59.23
2019-03-23T23:43:59.839Z,57.62
2019-03-23T23:46:53.383Z,57.62
2019-03-23T23:49:36.010Z,57.70
2019-03-23T23:52:07.912Z,58.05
2019-03-23T23:54:49.214Z,54.42
2019-03-23T23:57:24.081Z,56.02
2019-03-23T23:59:58.584Z,57.27
